Time;durP1;ratioP1;P1;durP2;ratioP2;P2;SDS_P1;SDS_P2;PMS_P1;PMS_P2;Temp;Humidity;BMP_temperature;BMP_pressure;BME280_temperature;BME280_humidity;BME280_pressure;Samples;Min_cycle;Max_cycle;Signal;HPM_P1;HPM_P2
2023/10/12 00:00:55;;;;;;;14.60;6.90;;;;;;;16.83;76.81;99838.27;107473;277;97741;-58
2023/10/12 00:03:44;;;;;;;14.90;8.40;;;;;;;16.80;76.83;99834.38;107445;277;121458;-56
2023/10/12 00:06:21;;;;;;;12.20;7.50;;;;;;;16.77;76.79;99834.66;107499;277;105837;-56
2023/10/12 00:09:09;;;;;;;11.20;6.90;;;;;;;16.75;76.98;99832.91;107441;277;114987;-55
2023/10/12 00:11:56;;;;;;;13.40;7.80;;;;;;;16.74;77.01;99833.59;107448;277;96543;-55
2023/10/12 00:14:38;;;;;;;11.40;6.70;;;;;;;16.73;77.10;99827.27;107465;277;96986;-55
2023/10/12 00:17:17;;;;;;;13.90;7.90;;;;;;;16.76;76.97;99827.41;107465;277;121240;-58
2023/10/12 00:19:55;;;;;;;12.90;7.70;;;;;;;16.75;77.03;99822.95;107478;277;105148;-58
2023/10/12 00:22:36;;;;;;;12.00;7.30;;;;;;;16.76;77.06;99821.85;107508;277;115101;-58
2023/10/12 00:25:16;;;;;;;12.10;6.60;;;;;;;16.77;77.12;99816.73;107496;277;95018;-56
2023/10/12 00:27:57;;;;;;;13.60;7.80;;;;;;;16.75;77.28;99807.66;107530;277;97785;-53
2023/10/12 00:30:41;;;;;;;17.10;7.90;;;;;;;16.78;77.36;99807.84;107553;277;121409;-57
2023/10/12 00:33:24;;;;;;;13.50;7.50;;;;;;;16.76;77.17;99807.69;107478;277;104686;-56
2023/10/12 00:36:09;;;;;;;12.70;7.20;;;;;;;16.77;77.27;99804.41;107657;276;114300;-57
2023/10/12 00:38:53;;;;;;;16.80;7.30;;;;;;;16.78;77.26;99800.52;107662;276;96257;-56
2023/10/12 00:41:38;;;;;;;12.80;7.70;;;;;;;16.82;77.31;99800.98;107683;276;96540;-52
2023/10/12 00:44:18;;;;;;;13.00;7.40;;;;;;;16.84;77.37;99802.59;107672;276;120824;-54
2023/10/12 00:47:08;;;;;;;11.40;7.20;;;;;;;16.85;77.16;99791.71;107677;276;105233;-53
2023/10/12 00:49:50;;;;;;;16.70;7.60;;;;;;;16.86;77.10;99791.79;107621;276;112389;-53
2023/10/12 00:52:45;;;;;;;11.40;6.90;;;;;;;16.87;77.16;99787.64;107666;276;93679;-58
2023/10/12 00:55:35;;;;;;;14.70;7.50;;;;;;;16.86;77.21;99784.13;107645;276;97114;-58
2023/10/12 00:58:15;;;;;;;11.60;7.40;;;;;;;16.83;77.30;99780.77;107636;276;120510;-56
2023/10/12 01:01:01;;;;;;;9.90;6.40;;;;;;;16.83;77.19;99777.90;107661;276;105450;-54
2023/10/12 01:03:39;;;;;;;12.30;6.80;;;;;;;16.78;77.25;99771.77;107639;276;115248;-54
2023/10/12 01:06:28;;;;;;;14.20;7.20;;;;;;;16.76;77.29;99771.98;107657;276;95717;-57
2023/10/12 01:09:18;;;;;;;12.80;7.50;;;;;;;16.75;77.31;99775.86;107698;276;97589;-56
2023/10/12 01:12:00;;;;;;;14.50;7.10;;;;;;;16.79;77.28;99774.60;107546;276;120291;-54
2023/10/12 01:14:42;;;;;;;11.40;6.60;;;;;;;16.80;77.28;99772.78;107696;276;105530;-53
2023/10/12 01:17:29;;;;;;;16.90;7.50;;;;;;;16.80;77.23;99772.02;107719;276;115017;-57
2023/10/12 01:20:17;;;;;;;11.60;7.30;;;;;;;16.80;77.29;99774.64;107677;276;94950;-58
2023/10/12 01:22:59;;;;;;;13.50;7.50;;;;;;;16.80;77.25;99772.52;107691;276;97793;-58
2023/10/12 01:25:44;;;;;;;10.60;6.50;;;;;;;16.80;77.24;99772.73;107747;276;120935;-55
2023/10/12 01:28:28;;;;;;;13.40;6.70;;;;;;;16.77;77.33;99761.85;107655;276;105485;-53
2023/10/12 01:31:07;;;;;;;;;;;;;;;16.75;77.27;99759.48;107602;276;116015;-59
2023/10/12 01:33:50;;;;;;;13.40;7.10;;;;;;;16.74;77.42;99752.59;107624;276;96271;-58
2023/10/12 01:36:30;;;;;;;11.80;6.80;;;;;;;16.75;77.32;99753.33;107638;276;96968;-55
2023/10/12 01:39:16;;;;;;;13.10;6.90;;;;;;;16.79;77.24;99748.55;107642;276;120293;-54
2023/10/12 01:41:55;;;;;;;11.10;7.60;;;;;;;16.84;77.24;99754.30;107686;276;105074;-55
2023/10/12 01:44:40;;;;;;;10.90;6.50;;;;;;;16.85;77.18;99752.25;107598;276;113769;-54
2023/10/12 01:47:21;;;;;;;12.20;7.50;;;;;;;16.85;77.16;99751.59;107650;276;95000;-58
2023/10/12 01:50:02;;;;;;;12.20;6.80;;;;;;;16.83;77.14;99744.84;107721;276;98004;-58
2023/10/12 01:52:46;;;;;;;13.00;6.50;;;;;;;16.78;77.13;99742.19;107730;276;121041;-54
2023/10/12 01:55:30;;;;;;;13.00;6.90;;;;;;;16.74;77.05;99740.10;107657;272;105407;-53
2023/10/12 01:58:12;;;;;;;;;;;;;;;16.71;77.09;99734.25;107659;268;114405;-56
2023/10/12 02:00:54;;;;;;;13.70;6.20;;;;;;;16.67;77.14;99733.75;107629;276;94867;-55
2023/10/12 02:03:31;;;;;;;14.50;6.70;;;;;;;16.67;77.30;99735.60;107654;276;97220;-56
2023/10/12 02:06:16;;;;;;;13.40;6.40;;;;;;;16.71;77.35;99731.31;107672;276;121684;-55
2023/10/12 02:08:52;;;;;;;;;;;;;;;16.74;77.32;99729.73;107648;276;106056;-55
2023/10/12 02:14:32;;;;;;;13.60;6.80;;;;;;;16.80;77.26;99730.55;107625;276;94020;-58
2023/10/12 02:17:17;;;;;;;11.00;7.10;;;;;;;16.79;77.20;99734.75;107639;276;96833;-58
2023/10/12 02:19:58;;;;;;;11.80;6.50;;;;;;;16.81;77.33;99727.23;107654;276;119429;-59
2023/10/12 02:22:38;;;;;;;13.40;7.10;;;;;;;16.79;77.32;99728.30;107702;276;107142;-56
2023/10/12 02:25:26;;;;;;;13.30;7.10;;;;;;;16.82;77.33;99730.58;107647;276;115145;-55
2023/10/12 02:28:07;;;;;;;11.90;6.20;;;;;;;16.79;77.18;99726.16;107646;276;95682;-57
2023/10/12 02:30:54;;;;;;;11.70;6.30;;;;;;;16.77;77.27;99721.60;107643;276;96256;-55
2023/10/12 02:33:36;;;;;;;10.70;6.30;;;;;;;16.79;77.30;99723.71;107685;276;119797;-56
2023/10/12 02:36:10;;;;;;;11.50;6.00;;;;;;;16.79;77.22;99721.96;107714;276;106246;-54
2023/10/12 02:38:45;;;;;;;11.90;7.00;;;;;;;16.82;77.35;99722.85;107704;276;112759;-54
2023/10/12 02:41:19;;;;;;;11.10;6.50;;;;;;;16.86;77.23;99729.31;107597;276;96507;-58
2023/10/12 02:44:11;;;;;;;10.70;6.50;;;;;;;16.90;77.33;99729.31;107694;276;98403;-58
2023/10/12 02:47:12;;;;;;;13.20;7.00;;;;;;;16.94;77.26;99732.39;107647;276;120125;-58
2023/10/12 02:50:00;;;;;;;13.50;6.50;;;;;;;16.96;77.16;99730.61;107140;276;107014;-59
2023/10/12 02:52:36;;;;;;;11.80;5.80;;;;;;;16.97;77.17;99729.27;107625;276;113357;-56
2023/10/12 02:55:25;;;;;;;13.70;6.10;;;;;;;17.00;77.23;99728.13;107620;276;97213;-56
2023/10/12 02:58:19;;;;;;;10.20;6.10;;;;;;;17.08;77.18;99731.48;107659;276;98280;-53
2023/10/12 03:00:59;;;;;;;13.20;5.90;;;;;;;17.15;76.97;99724.54;107657;276;120360;-55
2023/10/12 03:03:48;;;;;;;12.60;5.90;;;;;;;17.19;76.94;99720.77;107610;276;105039;-54
2023/10/12 03:06:32;;;;;;;10.30;6.30;;;;;;;17.22;76.66;99720.40;107598;276;114024;-59
2023/10/12 03:09:15;;;;;;;8.90;5.40;;;;;;;17.25;76.72;99713.19;107626;276;95589;-59
2023/10/12 03:11:56;;;;;;;11.10;5.70;;;;;;;17.29;76.60;99712.32;107727;276;97392;-56
2023/10/12 03:14:40;;;;;;;11.20;5.80;;;;;;;17.30;76.54;99706.39;107679;276;119827;-55
2023/10/12 03:17:18;;;;;;;12.50;6.60;;;;;;;17.30;76.39;99708.95;107664;276;105526;-56
2023/10/12 03:19:58;;;;;;;10.00;5.60;;;;;;;17.33;76.45;99707.02;107547;276;115699;-55
2023/10/12 03:22:38;;;;;;;11.00;6.00;;;;;;;17.35;76.35;99707.44;107713;276;94344;-54
2023/10/12 03:25:33;;;;;;;15.70;7.50;;;;;;;17.38;76.29;99702.84;107748;276;97719;-54
2023/10/12 03:28:29;;;;;;;11.00;5.60;;;;;;;17.38;76.09;99709.23;107655;276;119947;-54
2023/10/12 03:31:21;;;;;;;11.80;5.90;;;;;;;17.38;76.21;99710.98;107703;276;106469;-54
2023/10/12 03:33:57;;;;;;;15.00;6.80;;;;;;;17.38;76.18;99711.49;107634;276;114864;-54
2023/10/12 03:36:36;;;;;;;12.40;6.70;;;;;;;17.41;75.93;99706.71;107667;276;96472;-54
2023/10/12 03:39:27;;;;;;;9.30;5.20;;;;;;;17.43;76.08;99707.39;107606;276;98649;-54
2023/10/12 03:42:41;;;;;;;11.10;5.50;;;;;;;17.46;75.92;99711.21;107681;276;120788;-53
2023/10/12 03:45:24;;;;;;;11.10;6.70;;;;;;;17.46;75.88;99708.98;107656;276;105132;-53
2023/10/12 03:48:15;;;;;;;12.20;6.70;;;;;;;17.46;75.81;99705.96;107672;276;114811;-58
2023/10/12 03:51:17;;;;;;;10.50;5.50;;;;;;;17.44;75.79;99700.48;107479;276;96515;-57
2023/10/12 03:54:11;;;;;;;14.70;5.80;;;;;;;17.41;75.75;99705.19;107680;276;96714;-58
2023/10/12 03:56:49;;;;;;;9.60;5.70;;;;;;;17.42;75.76;99704.65;107659;276;120709;-57
2023/10/12 03:59:37;;;;;;;10.70;5.80;;;;;;;17.41;75.71;99698.30;107723;276;105265;-58
2023/10/12 04:02:20;;;;;;;9.80;5.20;;;;;;;17.39;75.74;99694.62;107690;276;113492;-54
2023/10/12 04:05:02;;;;;;;12.60;5.90;;;;;;;17.38;75.67;99694.98;107687;276;94336;-53
2023/10/12 04:08:00;;;;;;;12.50;5.80;;;;;;;17.39;75.76;99699.58;107708;276;99990;-56
2023/10/12 04:16:40;;;;;;;10.30;5.50;;;;;;;17.41;75.62;99697.11;107662;276;114477;-57
2023/10/12 04:19:29;;;;;;;9.70;5.10;;;;;;;17.44;75.49;99697.96;107611;276;94905;-58
2023/10/12 04:22:25;;;;;;;12.40;5.50;;;;;;;17.47;75.48;99698.62;107671;276;97825;-58
2023/10/12 04:25:12;;;;;;;10.10;5.60;;;;;;;17.48;75.49;99696.54;107647;276;121835;-59
2023/10/12 04:27:51;;;;;;;12.20;4.90;;;;;;;17.47;75.41;99691.84;107730;276;106072;-58
2023/10/12 04:30:33;;;;;;;8.90;5.30;;;;;;;17.47;75.32;99685.07;107501;276;114343;-58
2023/10/12 04:33:17;;;;;;;9.10;5.10;;;;;;;17.45;75.37;99682.25;107663;276;96721;-59
2023/10/12 04:36:09;;;;;;;11.00;5.10;;;;;;;17.43;75.26;99676.88;107623;276;97879;-54
2023/10/12 04:38:57;;;;;;;10.00;5.40;;;;;;;17.41;75.34;99679.25;107652;276;120039;-54
2023/10/12 04:41:41;;;;;;;12.70;5.80;;;;;;;17.40;75.32;99677.48;107670;276;106515;-59
2023/10/12 04:44:39;;;;;;;10.30;5.00;;;;;;;17.38;75.26;99673.52;107685;276;113115;-58
2023/10/12 04:47:20;;;;;;;9.00;4.90;;;;;;;17.39;75.16;99666.92;107651;276;95155;-58
2023/10/12 04:50:07;;;;;;;11.80;5.90;;;;;;;17.37;75.07;99665.80;107689;276;97848;-58
2023/10/12 04:53:06;;;;;;;12.30;6.30;;;;;;;17.33;75.33;99664.83;107698;276;121335;-59
2023/10/12 04:55:48;;;;;;;10.30;5.40;;;;;;;17.34;75.31;99666.53;107741;276;104528;-58
2023/10/12 04:58:32;;;;;;;13.70;6.30;;;;;;;17.38;75.46;99667.18;107730;276;114313;-59
2023/10/12 05:01:24;;;;;;;10.00;5.30;;;;;;;17.39;75.22;99673.25;107723;276;94717;-53
2023/10/12 05:04:09;;;;;;;11.70;6.00;;;;;;;17.37;75.34;99673.36;107678;276;97399;-54
2023/10/12 05:07:06;;;;;;;10.20;5.80;;;;;;;17.38;75.22;99676.04;107621;276;118870;-53
2023/10/12 05:09:50;;;;;;;13.70;5.00;;;;;;;17.40;75.24;99679.34;107624;276;105003;-54
2023/10/12 05:12:31;;;;;;;15.70;5.60;;;;;;;17.40;75.18;99677.71;107479;276;114634;-54
2023/10/12 05:15:12;;;;;;;10.20;5.00;;;;;;;17.43;75.17;99684.46;107609;276;97185;-55
2023/10/12 05:17:48;;;;;;;9.50;5.50;;;;;;;17.45;75.19;99680.52;107676;276;96663;-56
2023/10/12 05:20:30;;;;;;;9.00;5.50;;;;;;;17.47;75.19;99683.48;107592;276;121764;-57
2023/10/12 05:23:07;;;;;;;14.90;5.90;;;;;;;17.47;75.06;99694.08;107623;276;105990;-55
2023/10/12 05:25:53;;;;;;;12.10;5.80;;;;;;;17.46;75.08;99697.89;107646;276;114617;-56
2023/10/12 05:28:36;;;;;;;11.60;6.10;;;;;;;17.48;75.07;99695.06;107662;276;95264;-55
2023/10/12 05:31:20;;;;;;;8.70;5.40;;;;;;;17.48;75.04;99693.38;107703;276;97291;-57
2023/10/12 05:37:08;;;;;;;11.90;5.70;;;;;;;17.53;74.96;99670.58;107644;276;105365;-54
2023/10/12 05:39:47;;;;;;;12.70;6.20;;;;;;;17.56;74.90;99671.13;107779;276;114063;-53
2023/10/12 05:42:39;;;;;;;8.70;5.40;;;;;;;17.57;74.83;99677.86;107673;276;92586;-56
2023/10/12 05:45:27;;;;;;;12.50;6.10;;;;;;;17.56;75.00;99676.26;107672;276;96914;-56
2023/10/12 05:48:08;;;;;;;10.40;5.40;;;;;;;17.58;74.97;99683.72;107671;276;120061;-55
2023/10/12 05:50:53;;;;;;;12.30;6.20;;;;;;;17.60;74.92;99686.33;107713;276;105376;-58
2023/10/12 05:53:34;;;;;;;10.40;5.30;;;;;;;17.60;74.86;99693.00;107624;276;113627;-59
2023/10/12 05:56:18;;;;;;;9.50;5.60;;;;;;;17.62;74.83;99697.10;107602;276;95826;-57
2023/10/12 05:58:56;;;;;;;11.10;5.70;;;;;;;17.63;74.84;99694.55;107638;276;98020;-59
2023/10/12 06:01:34;;;;;;;11.80;5.40;;;;;;;17.65;74.88;99704.59;107712;276;121120;-55
2023/10/12 06:04:09;;;;;;;10.60;5.10;;;;;;;17.68;74.73;99708.94;107677;276;105897;-55
2023/10/12 06:06:48;;;;;;;13.20;6.20;;;;;;;17.71;74.85;99710.61;107658;276;113825;-54
2023/10/12 06:09:37;;;;;;;12.00;5.90;;;;;;;17.73;74.74;99709.88;107647;276;95433;-53
2023/10/12 06:12:21;;;;;;;12.80;6.90;;;;;;;17.72;74.79;99717.89;107673;276;97808;-57
2023/10/12 06:15:09;;;;;;;10.30;4.80;;;;;;;17.74;74.86;99717.45;107646;276;120362;-56
2023/10/12 06:17:51;;;;;;;14.50;5.50;;;;;;;17.77;74.79;99723.77;107691;276;103762;-57
2023/10/12 06:20:40;;;;;;;22.80;6.30;;;;;;;17.81;74.62;99722.55;107697;276;114470;-57
2023/10/12 06:23:29;;;;;;;9.60;5.70;;;;;;;17.85;74.73;99729.44;107669;276;94562;-54
2023/10/12 06:26:14;;;;;;;13.90;6.50;;;;;;;17.93;74.69;99729.22;107755;276;96751;-57
2023/10/12 06:28:57;;;;;;;13.90;5.90;;;;;;;18.01;74.61;99730.85;107708;276;119995;-56
2023/10/12 06:31:40;;;;;;;11.90;5.70;;;;;;;18.05;74.40;99732.61;107552;276;104948;-56
2023/10/12 06:34:19;;;;;;;10.70;5.40;;;;;;;18.08;74.32;99740.19;107612;276;114579;-56
2023/10/12 06:36:57;;;;;;;10.90;5.40;;;;;;;18.11;74.47;99744.17;107520;276;96743;-56
2023/10/12 06:42:37;;;;;;;11.00;5.40;;;;;;;18.21;74.11;99747.84;107662;276;120414;-58
2023/10/12 06:45:21;;;;;;;11.90;6.20;;;;;;;18.28;73.99;99746.66;107631;276;105193;-58
2023/10/12 06:48:43;;;;;;;12.20;6.30;;;;;;;18.36;73.81;99746.64;107624;276;112840;-53
2023/10/12 06:51:07;;;;;;;12.40;6.00;;;;;;;18.36;73.29;99750.81;107606;276;94999;-57
2023/10/12 06:53:53;;;;;;;9.90;5.40;;;;;;;18.35;73.34;99756.16;107515;276;96855;-57
2023/10/12 06:56:28;;;;;;;12.70;5.60;;;;;;;18.38;73.26;99760.67;107705;276;120751;-59
2023/10/12 06:59:21;;;;;;;9.60;5.50;;;;;;;18.43;73.24;99764.14;107712;276;103851;-58
2023/10/12 07:02:10;;;;;;;;;;;;;;;18.47;73.05;99763.80;107669;276;114632;-58
2023/10/12 07:04:53;;;;;;;14.00;5.30;;;;;;;18.50;73.13;99765.67;107644;276;95931;-57
2023/10/12 07:07:36;;;;;;;9.10;5.10;;;;;;;18.52;72.77;99769.95;107744;276;96745;-57
2023/10/12 07:10:28;;;;;;;12.00;6.40;;;;;;;18.52;72.61;99774.83;107664;276;121645;-57
2023/10/12 07:13:10;;;;;;;11.20;5.60;;;;;;;18.54;72.60;99782.08;107687;276;105533;-58
2023/10/12 07:15:53;;;;;;;11.10;6.30;;;;;;;18.51;72.34;99783.14;107717;276;113877;-57
2023/10/12 07:18:34;;;;;;;13.50;6.10;;;;;;;18.51;72.41;99781.55;107692;276;95487;-59
2023/10/12 07:21:21;;;;;;;11.90;5.80;;;;;;;18.52;72.30;99787.02;107737;276;97184;-59
2023/10/12 07:24:07;;;;;;;11.80;6.20;;;;;;;18.50;72.38;99792.59;107628;276;119983;-57
2023/10/12 07:26:48;;;;;;;12.60;6.20;;;;;;;18.45;72.42;99787.67;107652;276;104450;-54
2023/10/12 07:29:35;;;;;;;13.40;6.50;;;;;;;18.40;72.41;99797.13;107602;276;113863;-53
2023/10/12 07:32:30;;;;;;;14.80;5.30;;;;;;;18.40;72.32;99790.08;107616;276;96391;-54
2023/10/12 07:35:17;;;;;;;10.40;5.40;;;;;;;18.38;72.66;99790.27;107662;276;97266;-53
2023/10/12 07:37:54;;;;;;;12.30;5.50;;;;;;;18.34;72.75;99791.74;107667;276;120941;-58
2023/10/12 07:40:36;;;;;;;12.30;6.30;;;;;;;18.29;72.94;99788.96;107651;276;105431;-58
2023/10/12 07:43:18;;;;;;;11.20;6.20;;;;;;;18.25;73.01;99787.22;107608;276;114709;-57
2023/10/12 07:46:12;;;;;;;12.60;6.00;;;;;;;18.22;73.04;99800.69;107655;276;96370;-58
2023/10/12 07:48:50;;;;;;;11.50;5.60;;;;;;;18.22;73.20;99796.73;107687;276;96630;-56
2023/10/12 07:51:53;;;;;;;10.90;5.90;;;;;;;18.24;73.40;99798.69;107608;276;120864;-54
2023/10/12 07:54:57;;;;;;;10.10;5.50;;;;;;;18.32;73.50;99797.59;107645;276;105442;-54
2023/10/12 07:57:43;;;;;;;10.10;5.10;;;;;;;18.43;73.61;99800.89;107768;276;113872;-55
2023/10/12 08:00:34;;;;;;;8.50;5.40;;;;;;;18.52;73.47;99806.89;107719;276;92653;-55
2023/10/12 08:03:19;;;;;;;12.50;6.40;;;;;;;18.65;73.64;99818.20;107697;276;97934;-55
2023/10/12 08:06:06;;;;;;;10.30;5.90;;;;;;;18.78;73.50;99817.42;107709;276;119859;-55
2023/10/12 08:08:48;;;;;;;11.30;5.60;;;;;;;18.89;73.43;99818.52;107663;276;105820;-55
2023/10/12 08:11:31;;;;;;;8.80;5.30;;;;;;;19.05;73.02;99823.84;107672;276;114180;-54
2023/10/12 08:14:19;;;;;;;15.20;6.30;;;;;;;19.17;72.69;99829.77;107546;276;94574;-53
2023/10/12 08:19:55;;;;;;;14.00;5.70;;;;;;;19.21;71.96;99822.96;107611;276;121845;-59
2023/10/12 08:22:36;;;;;;;13.00;5.70;;;;;;;19.36;72.08;99830.79;107680;276;105712;-54
2023/10/12 08:25:27;;;;;;;14.20;5.90;;;;;;;19.59;71.90;99826.45;107605;276;114623;-55
2023/10/12 08:28:18;;;;;;;13.30;5.40;;;;;;;19.74;71.32;99823.10;107615;276;94175;-58
2023/10/12 08:31:01;;;;;;;9.70;5.60;;;;;;;19.79;70.59;99815.20;107689;276;98130;-56
2023/10/12 08:33:58;;;;;;;9.50;5.00;;;;;;;19.81;70.52;99818.77;107651;276;120335;-55
2023/10/12 08:37:07;;;;;;;9.60;4.80;;;;;;;19.86;70.13;99818.15;107709;276;105845;-54
2023/10/12 08:39:38;;;;;;;10.60;4.70;;;;;;;19.88;69.78;99831.70;107715;276;114368;-54
2023/10/12 08:42:37;;;;;;;10.50;4.90;;;;;;;20.02;69.93;99833.16;107716;276;93277;-54
2023/10/12 08:45:15;;;;;;;12.20;5.30;;;;;;;20.12;69.67;99823.52;107728;276;98418;-54
2023/10/12 08:48:01;;;;;;;11.00;4.60;;;;;;;20.13;69.20;99824.62;107732;276;120179;-59
2023/10/12 08:50:49;;;;;;;11.70;5.20;;;;;;;20.14;69.31;99831.59;107688;276;105801;-56
2023/10/12 08:53:36;;;;;;;11.50;4.70;;;;;;;20.10;69.01;99835.58;107663;276;113492;-57
2023/10/12 08:56:18;;;;;;;9.10;5.40;;;;;;;19.99;68.77;99838.09;107680;276;93619;-57
2023/10/12 08:59:04;;;;;;;9.60;5.10;;;;;;;19.92;68.94;99850.21;107613;276;98709;-58
2023/10/12 09:01:43;;;;;;;11.60;6.00;;;;;;;19.85;68.97;99860.14;107610;276;121427;-58
2023/10/12 09:04:29;;;;;;;10.50;5.40;;;;;;;19.78;68.86;99863.16;107641;276;104419;-59
2023/10/12 09:07:16;;;;;;;11.90;5.80;;;;;;;19.71;68.86;99862.52;107636;276;115385;-59
2023/10/12 09:09:55;;;;;;;9.80;4.60;;;;;;;19.62;68.87;99873.92;107658;276;95325;-59
2023/10/12 09:12:39;;;;;;;9.60;5.10;;;;;;;19.62;69.13;99875.95;107667;276;97669;-53
2023/10/12 09:15:29;;;;;;;9.50;4.70;;;;;;;19.65;69.45;99878.62;107639;276;121911;-53
2023/10/12 09:18:09;;;;;;;10.70;4.60;;;;;;;19.68;69.37;99882.38;107647;276;104721;-60
2023/10/12 09:21:15;;;;;;;9.90;4.90;;;;;;;19.70;69.22;99879.54;107680;276;112737;-57
2023/10/12 09:24:07;;;;;;;10.30;5.10;;;;;;;19.66;69.38;99867.17;107666;276;94823;-57
2023/10/12 09:26:57;;;;;;;7.40;4.40;;;;;;;19.63;69.28;99873.34;107736;276;96916;-54
2023/10/12 09:29:57;;;;;;;12.30;5.30;;;;;;;19.62;69.32;99882.97;107643;276;121742;-53
2023/10/12 09:32:56;;;;;;;11.90;4.90;;;;;;;19.53;69.26;99894.23;107726;276;104840;-53
2023/10/12 09:35:48;;;;;;;10.30;4.90;;;;;;;19.46;69.09;99902.55;107678;276;114318;-57
2023/10/12 09:38:30;;;;;;;10.90;4.70;;;;;;;19.39;68.96;99907.09;107692;276;94761;-59
2023/10/12 09:41:08;;;;;;;10.70;4.90;;;;;;;19.35;68.87;99913.91;107685;276;98084;-55
2023/10/12 09:43:53;;;;;;;8.30;4.70;;;;;;;19.30;69.02;99922.04;107641;276;119744;-54
2023/10/12 09:46:46;;;;;;;11.70;4.60;;;;;;;19.20;68.88;99928.27;107720;276;104260;-57
2023/10/12 09:49:32;;;;;;;10.10;4.80;;;;;;;19.13;68.93;99928.58;107619;276;113970;-57
2023/10/12 09:52:15;;;;;;;10.70;4.50;;;;;;;19.06;69.01;99936.39;107635;276;95033;-54
2023/10/12 09:54:59;;;;;;;9.80;5.20;;;;;;;18.99;69.16;99942.46;107692;276;97586;-54
2023/10/12 09:57:49;;;;;;;10.20;4.60;;;;;;;19.03;69.23;99935.42;107677;276;120780;-59
2023/10/12 10:00:55;;;;;;;9.40;4.80;;;;;;;19.09;69.19;99943.33;107579;276;105563;-59
2023/10/12 10:03:40;;;;;;;7.70;4.30;;;;;;;19.14;69.46;99951.87;107622;276;114182;-59
2023/10/12 10:06:37;;;;;;;9.20;4.40;;;;;;;19.11;69.77;99956.09;107652;276;96313;-59
2023/10/12 10:09:36;;;;;;;10.10;4.00;;;;;;;19.08;69.91;99956.78;107664;276;97957;-59
2023/10/12 10:12:16;;;;;;;9.70;4.00;;;;;;;19.11;70.05;99966.29;107629;276;120644;-54
2023/10/12 10:14:59;;;;;;;8.20;4.50;;;;;;;19.18;70.23;99967.90;107669;276;106341;-54
2023/10/12 10:17:48;;;;;;;9.10;4.30;;;;;;;19.19;70.49;99968.52;107730;276;114186;-58
2023/10/12 10:23:36;;;;;;;10.60;4.70;;;;;;;18.95;71.18;99961.55;107630;276;97898;-53
2023/10/12 10:26:23;;;;;;;11.80;5.00;;;;;;;18.88;71.35;99964.08;107665;276;120495;-54
2023/10/12 10:29:05;;;;;;;8.70;4.70;;;;;;;18.82;71.80;99964.66;107663;276;105045;-55
2023/10/12 10:31:51;;;;;;;10.10;4.60;;;;;;;18.76;71.89;99975.86;107699;276;113996;-55
2023/10/12 10:34:34;;;;;;;6.40;4.10;;;;;;;18.69;72.14;99984.73;107554;276;94531;-55
2023/10/12 10:37:47;;;;;;;10.10;4.80;;;;;;;18.62;72.38;99988.02;107671;276;97978;-58
2023/10/12 10:40:43;;;;;;;10.00;5.40;;;;;;;18.57;73.07;99991.51;107642;276;120507;-59
2023/10/12 10:43:19;;;;;;;13.00;6.10;;;;;;;18.56;73.30;99990.73;107607;276;105561;-59
2023/10/12 10:46:05;;;;;;;11.20;5.10;;;;;;;18.51;73.58;99991.23;107675;276;114311;-59
2023/10/12 10:48:49;;;;;;;8.40;4.60;;;;;;;18.43;74.10;99985.40;107246;276;398843;-58
2023/10/12 10:51:29;;;;;;;12.50;4.70;;;;;;;18.37;74.44;99987.79;107660;276;96816;-55
2023/10/12 10:54:19;;;;;;;8.00;4.70;;;;;;;18.30;74.77;99991.92;107655;276;120671;-56
2023/10/12 10:56:58;;;;;;;6.70;4.30;;;;;;;18.15;75.26;99988.09;107694;276;105050;-58
2023/10/12 10:59:44;;;;;;;8.30;4.50;;;;;;;18.04;75.65;99982.65;107726;276;114088;-58
2023/10/12 11:02:35;;;;;;;7.30;4.50;;;;;;;17.95;75.85;99977.16;107704;276;95929;-55
2023/10/12 11:05:19;;;;;;;7.50;4.10;;;;;;;18.00;76.48;99979.02;107725;276;98105;-55
2023/10/12 11:08:18;;;;;;;7.80;4.40;;;;;;;18.00;76.75;99982.58;107669;276;120684;-54
2023/10/12 11:13:59;;;;;;;9.80;4.60;;;;;;;17.81;77.43;100008.96;107654;276;114185;-57
2023/10/12 11:16:38;;;;;;;10.10;4.30;;;;;;;17.77;77.68;100002.91;107631;276;97293;-55
2023/10/12 11:19:23;;;;;;;8.50;4.60;;;;;;;17.84;78.34;99999.14;107656;276;96794;-55
2023/10/12 11:22:07;;;;;;;8.60;5.20;;;;;;;17.93;78.44;99994.06;107608;276;120223;-58
2023/10/12 11:24:53;;;;;;;11.00;5.00;;;;;;;17.91;78.58;99991.17;107626;276;105530;-57
2023/10/12 11:27:42;;;;;;;13.40;4.80;;;;;;;17.92;78.72;99977.70;107632;276;114312;-54
2023/10/12 11:30:31;;;;;;;12.70;7.70;;;;;;;17.99;78.82;99967.58;107654;276;95840;-54
2023/10/12 11:33:16;;;;;;;8.60;4.80;;;;;;;17.90;78.83;99972.91;107673;276;96873;-54
2023/10/12 11:36:03;;;;;;;9.40;4.50;;;;;;;17.81;78.86;99972.30;107648;276;120787;-54
2023/10/12 11:38:44;;;;;;;10.00;4.70;;;;;;;17.70;78.60;99983.48;107620;276;104780;-54
2023/10/12 11:41:23;;;;;;;10.30;4.20;;;;;;;17.59;78.96;99982.89;107642;276;113364;-57
2023/10/12 11:44:00;;;;;;;9.70;4.80;;;;;;;17.55;79.24;99975.77;107655;276;97227;-57
2023/10/12 11:46:49;;;;;;;9.20;4.60;;;;;;;17.59;79.31;99970.21;107667;276;97523;-57
2023/10/12 11:49:47;;;;;;;9.60;4.40;;;;;;;17.68;79.64;99972.84;107647;276;120474;-57
2023/10/12 11:52:33;;;;;;;10.30;4.90;;;;;;;17.82;79.61;99977.68;107675;276;105107;-53
2023/10/12 11:55:18;;;;;;;10.20;5.00;;;;;;;17.93;79.73;99977.33;107711;276;115608;-54
2023/10/12 11:58:07;;;;;;;8.60;5.50;;;;;;;17.98;79.81;99978.88;107686;276;94335;-58
2023/10/12 12:00:48;;;;;;;10.80;5.60;;;;;;;17.98;79.86;99976.53;107723;276;97989;-55
2023/10/12 12:03:39;;;;;;;8.10;5.20;;;;;;;18.03;79.69;99977.72;107677;276;121111;-54
2023/10/12 12:06:21;;;;;;;10.90;5.70;;;;;;;17.99;79.64;99977.27;107665;276;105993;-54
2023/10/12 12:09:08;;;;;;;10.60;5.20;;;;;;;17.99;79.56;99973.86;107672;276;114757;-54
2023/10/12 12:11:47;;;;;;;9.30;5.00;;;;;;;18.00;79.43;99962.08;107644;276;98465;-57
2023/10/12 12:14:22;;;;;;;10.00;5.00;;;;;;;18.00;79.36;99969.90;107656;276;95980;-56
2023/10/12 12:17:03;;;;;;;11.70;5.20;;;;;;;17.96;79.46;99966.66;107708;276;119212;-53
2023/10/12 12:19:43;;;;;;;9.20;4.60;;;;;;;17.94;79.12;99974.92;107647;276;105271;-54
2023/10/12 12:22:24;;;;;;;8.00;4.80;;;;;;;17.88;79.30;99974.17;107643;276;113503;-53
2023/10/12 12:25:13;;;;;;;7.20;4.10;;;;;;;17.81;79.34;99974.21;107678;276;96901;-53
2023/10/12 12:27:59;;;;;;;10.50;4.90;;;;;;;17.88;79.17;99981.16;107646;276;97991;-55
2023/10/12 12:30:46;;;;;;;8.90;4.70;;;;;;;17.93;79.19;99988.02;107626;276;120473;-56
2023/10/12 12:33:23;;;;;;;10.40;4.70;;;;;;;17.89;79.50;99985.84;107665;276;105193;-57
2023/10/12 12:36:08;;;;;;;13.30;4.80;;;;;;;17.90;79.53;99983.77;107660;276;113848;-59
2023/10/12 12:38:48;;;;;;;8.10;4.40;;;;;;;17.86;79.48;99984.52;107708;276;96317;-59
2023/10/12 12:41:30;;;;;;;8.60;4.30;;;;;;;17.84;79.41;99998.04;107717;276;96539;-53
2023/10/12 12:44:10;;;;;;;9.30;4.30;;;;;;;17.82;79.42;99999.59;107736;276;120212;-54
2023/10/12 12:46:52;;;;;;;8.70;4.30;;;;;;;17.81;79.49;100002.52;107629;276;105270;-54
2023/10/12 12:49:29;;;;;;;9.10;4.40;;;;;;;17.84;79.38;100002.80;107695;276;114781;-55
2023/10/12 12:52:09;;;;;;;9.30;5.20;;;;;;;17.87;79.27;100004.81;107467;276;96096;-54
2023/10/12 12:54:51;;;;;;;12.30;4.80;;;;;;;17.86;79.08;100005.17;107661;276;95556;-59
2023/10/12 12:57:29;;;;;;;6.60;4.20;;;;;;;17.77;79.35;100006.44;107504;276;120037;-57
2023/10/12 13:00:21;;;;;;;8.80;4.40;;;;;;;17.76;79.23;100008.66;107685;276;106773;-58
2023/10/12 13:03:01;;;;;;;11.30;5.60;;;;;;;17.70;79.35;100009.80;107667;276;113183;-60
2023/10/12 13:05:46;;;;;;;8.70;4.10;;;;;;;17.70;79.41;100006.73;107679;276;96638;-56
2023/10/12 13:08:30;;;;;;;9.70;4.30;;;;;;;17.68;79.43;100008.36;107664;276;96767;-55
2023/10/12 13:11:09;;;;;;;8.00;4.30;;;;;;;17.71;79.37;100011.46;107675;276;119421;-54